Time;durP1;ratioP1;P1;durP2;ratioP2;P2;SDS_P1;SDS_P2;PMS_P1;PMS_P2;Temp;Humidity;BMP_temperature;BMP_pressure;BME280_temperature;BME280_humidity;BME280_pressure;Samples;Min_cycle;Max_cycle;Signal;HPM_P1;HPM_P2
2024/01/04 00:01:21;;;;;;;2.83;1.08;;;9.30;99.90;;;;;;4397441;32;20132;-59
2024/01/04 00:03:46;;;;;;;1.30;1.20;;;9.30;99.90;;;;;;4398209;32;20080;-60
2024/01/04 00:06:12;;;;;;;0.30;0.30;;;9.30;99.90;;;;;;4396497;32;20065;-61
2024/01/04 00:08:37;;;;;;;0.40;0.40;;;9.30;99.90;;;;;;4393857;32;20105;-60
2024/01/04 00:11:06;;;;;;;0.30;0.30;;;9.30;99.90;;;;;;4396556;32;20102;-61
2024/01/04 00:13:32;;;;;;;2.37;0.80;;;9.30;99.90;;;;;;4380527;32;20078;-60
2024/01/04 00:15:58;;;;;;;0.50;0.50;;;9.30;99.90;;;;;;4377978;32;20541;-59
2024/01/04 00:18:23;;;;;;;0.70;0.47;;;9.30;99.90;;;;;;4378835;32;20069;-60
2024/01/04 00:20:49;;;;;;;0.40;0.40;;;9.30;99.90;;;;;;4395034;32;20066;-60
2024/01/04 00:23:14;;;;;;;3.60;0.73;;;9.30;99.90;;;;;;4396468;32;20125;-61
2024/01/04 00:25:39;;;;;;;0.30;0.30;;;9.30;99.90;;;;;;4393890;32;20078;-61
2024/01/04 00:28:05;;;;;;;0.30;0.30;;;9.30;99.90;;;;;;4393845;32;20193;-60
2024/01/04 00:30:31;;;;;;;5.47;0.82;;;9.30;99.90;;;;;;4394631;32;20533;-60
2024/01/04 00:32:56;;;;;;;0.30;0.30;;;9.20;99.90;;;;;;4377314;32;20073;-59
2024/01/04 00:35:22;;;;;;;0.30;0.30;;;9.20;99.90;;;;;;4395953;32;20191;-59
2024/01/04 00:37:48;;;;;;;0.20;0.20;;;9.30;99.90;;;;;;4394342;32;20070;-60
2024/01/04 00:40:14;;;;;;;0.30;0.30;;;9.30;99.90;;;;;;4396770;32;20065;-60
2024/01/04 00:42:39;;;;;;;0.30;0.30;;;9.30;99.90;;;;;;4395758;32;20121;-61
2024/01/04 00:45:05;;;;;;;0.32;0.32;;;9.30;99.90;;;;;;4393255;32;20142;-62
2024/01/04 00:47:32;;;;;;;0.30;0.30;;;9.30;99.90;;;;;;4395440;32;20074;-59
2024/01/04 00:49:57;;;;;;;0.52;0.52;;;9.30;99.90;;;;;;4396888;32;20128;-61
2024/01/04 00:52:22;;;;;;;0.40;0.40;;;9.30;99.90;;;;;;4394963;32;20069;-60
2024/01/04 00:54:48;;;;;;;1.30;1.20;;;9.30;99.90;;;;;;4392679;32;20078;-62
2024/01/04 00:57:13;;;;;;;0.30;0.30;;;9.30;99.90;;;;;;4395146;32;20086;-62
2024/01/04 00:59:39;;;;;;;0.50;0.50;;;9.30;99.90;;;;;;4396563;32;20062;-59
2024/01/04 01:02:05;;;;;;;3.72;1.20;;;9.30;99.90;;;;;;4397087;32;20082;-59
2024/01/04 01:04:31;;;;;;;0.30;0.30;;;9.30;99.90;;;;;;4380680;32;20439;-62
2024/01/04 01:06:56;;;;;;;0.20;0.20;;;9.30;99.90;;;;;;4395002;32;20093;-61
2024/01/04 01:09:22;;;;;;;0.30;0.30;;;9.30;99.90;;;;;;4397882;32;20133;-62
2024/01/04 01:11:47;;;;;;;0.30;0.30;;;9.30;99.90;;;;;;4396002;32;20066;-61
2024/01/04 01:14:13;;;;;;;0.30;0.30;;;9.30;99.90;;;;;;4393454;32;20497;-61
2024/01/04 01:16:38;;;;;;;0.50;0.50;;;9.30;99.90;;;;;;4394768;32;20080;-62
2024/01/04 01:19:03;;;;;;;0.30;0.30;;;9.30;99.90;;;;;;4394207;32;20422;-61
2024/01/04 01:21:29;;;;;;;0.30;0.30;;;9.30;99.90;;;;;;4396697;32;20078;-62
2024/01/04 01:23:54;;;;;;;0.30;0.30;;;9.30;99.90;;;;;;4396705;32;20439;-60
2024/01/04 01:26:20;;;;;;;0.30;0.30;;;9.30;99.90;;;;;;4396986;32;20086;-61
2024/01/04 01:28:46;;;;;;;0.30;0.30;;;9.30;99.90;;;;;;4394255;32;20430;-62
2024/01/04 01:31:12;;;;;;;0.28;0.28;;;9.30;99.90;;;;;;4379633;32;20089;-61
2024/01/04 01:33:40;;;;;;;0.30;0.30;;;9.30;99.90;;;;;;4396655;32;20078;-61
2024/01/04 01:36:07;;;;;;;5.05;0.70;;;9.30;99.90;;;;;;4396624;32;20069;-62
2024/01/04 01:38:32;;;;;;;0.30;0.30;;;9.30;99.90;;;;;;4395280;32;20070;-62
2024/01/04 01:40:57;;;;;;;0.28;0.28;;;9.30;99.90;;;;;;4394853;32;20077;-61
2024/01/04 01:43:23;;;;;;;0.25;0.25;;;9.30;99.90;;;;;;4395849;32;20083;-62
2024/01/04 01:45:49;;;;;;;0.20;0.20;;;9.30;99.90;;;;;;4396446;32;20121;-61
2024/01/04 01:48:14;;;;;;;0.20;0.20;;;9.30;99.90;;;;;;4396503;32;20441;-62
2024/01/04 01:50:40;;;;;;;0.28;0.28;;;9.40;99.90;;;;;;4395812;32;20438;-61
2024/01/04 01:53:06;;;;;;;0.30;0.30;;;9.30;99.90;;;;;;4395057;32;20125;-62
2024/01/04 01:55:31;;;;;;;0.30;0.30;;;9.30;99.90;;;;;;4395527;32;20102;-61
2024/01/04 01:57:57;;;;;;;0.30;0.30;;;9.30;99.90;;;;;;4394513;32;20588;-63
2024/01/04 02:00:23;;;;;;;0.28;0.28;;;9.30;99.90;;;;;;4394624;32;20090;-61
2024/01/04 02:02:49;;;;;;;0.85;0.85;;;9.30;99.90;;;;;;4396793;32;20074;-62
2024/01/04 02:05:15;;;;;;;0.30;0.30;;;9.30;99.90;;;;;;4393914;32;20154;-60
2024/01/04 02:07:43;;;;;;;0.40;0.40;;;9.30;99.90;;;;;;4375798;32;20066;-60
2024/01/04 02:10:08;;;;;;;0.30;0.30;;;9.30;99.90;;;;;;4394991;32;20077;-62
2024/01/04 02:12:34;;;;;;;1.75;0.75;;;9.30;99.90;;;;;;4396314;32;20137;-62
2024/01/04 02:14:59;;;;;;;0.30;0.30;;;9.30;99.90;;;;;;4396912;32;20133;-61
2024/01/04 02:17:25;;;;;;;0.32;0.32;;;9.30;99.90;;;;;;4395198;32;20125;-62
2024/01/04 02:19:51;;;;;;;0.40;0.40;;;9.30;99.90;;;;;;4380413;32;20153;-62
2024/01/04 02:22:17;;;;;;;0.30;0.30;;;9.30;99.90;;;;;;4370278;32;20073;-62
2024/01/04 02:24:43;;;;;;;0.70;0.40;;;9.30;99.90;;;;;;4363385;32;20059;-62
2024/01/04 02:27:09;;;;;;;0.20;0.20;;;9.30;99.90;;;;;;4394571;32;20093;-62
2024/01/04 02:29:34;;;;;;;0.30;0.30;;;9.30;99.90;;;;;;4392959;32;20069;-62
2024/01/04 02:32:00;;;;;;;0.32;0.32;;;9.20;99.90;;;;;;4393745;32;20074;-63
2024/01/04 02:34:25;;;;;;;0.30;0.30;;;9.20;99.90;;;;;;4392833;32;20165;-62
2024/01/04 02:36:51;;;;;;;0.30;0.30;;;9.20;99.90;;;;;;4396660;32;20087;-60
2024/01/04 02:39:16;;;;;;;0.30;0.30;;;9.20;99.90;;;;;;4394414;32;20646;-62
2024/01/04 02:41:42;;;;;;;0.30;0.30;;;9.20;99.90;;;;;;4394835;32;20094;-61
2024/01/04 02:44:07;;;;;;;0.20;0.20;;;9.10;99.90;;;;;;4380459;32;20541;-61
2024/01/04 02:46:33;;;;;;;0.30;0.30;;;9.10;99.90;;;;;;4396499;32;20073;-62
2024/01/04 02:48:58;;;;;;;0.30;0.30;;;9.10;99.90;;;;;;4394856;32;20078;-62
2024/01/04 02:51:24;;;;;;;0.55;0.55;;;9.10;99.90;;;;;;4392837;32;20576;-61
2024/01/04 02:53:49;;;;;;;0.40;0.40;;;9.00;99.90;;;;;;4393491;32;20079;-62
2024/01/04 02:56:15;;;;;;;0.20;0.20;;;9.00;99.90;;;;;;4392131;32;20541;-62
2024/01/04 02:58:43;;;;;;;0.25;0.25;;;8.90;99.90;;;;;;4377188;32;20133;-61
2024/01/04 03:01:08;;;;;;;0.30;0.30;;;8.80;99.90;;;;;;4379746;32;20062;-62
2024/01/04 03:03:34;;;;;;;0.20;0.20;;;8.80;99.90;;;;;;4395054;32;20078;-63
2024/01/04 03:05:59;;;;;;;0.20;0.20;;;8.70;99.90;;;;;;4391981;32;20137;-62
2024/01/04 03:08:25;;;;;;;0.30;0.30;;;8.70;99.90;;;;;;4389791;32;20493;-62
2024/01/04 03:10:50;;;;;;;0.70;0.70;;;8.70;99.90;;;;;;4390488;32;20082;-62
2024/01/04 03:13:16;;;;;;;0.20;0.20;;;8.60;99.90;;;;;;4392193;32;20065;-62
2024/01/04 03:15:41;;;;;;;0.40;0.40;;;8.50;99.90;;;;;;4393160;32;20085;-62
2024/01/04 03:18:07;;;;;;;0.30;0.30;;;8.50;99.90;;;;;;4391764;32;20077;-61
2024/01/04 03:20:32;;;;;;;0.35;0.35;;;8.50;99.90;;;;;;4396735;32;20489;-61
2024/01/04 03:22:58;;;;;;;0.25;0.25;;;8.50;99.90;;;;;;4375115;32;20628;-62
2024/01/04 03:25:23;;;;;;;0.98;0.57;;;8.40;99.90;;;;;;4393252;32;20099;-61
2024/01/04 03:27:49;;;;;;;0.30;0.30;;;8.50;99.90;;;;;;4394137;32;20143;-61
2024/01/04 03:30:14;;;;;;;0.30;0.30;;;8.50;99.90;;;;;;4394612;32;20130;-61
2024/01/04 03:32:40;;;;;;;0.30;0.30;;;8.50;99.90;;;;;;4394677;32;20090;-61
2024/01/04 03:35:06;;;;;;;0.20;0.20;;;8.40;99.90;;;;;;4377083;32;20501;-60
2024/01/04 03:37:31;;;;;;;0.30;0.30;;;8.40;99.90;;;;;;4390887;32;20090;-63
2024/01/04 03:39:57;;;;;;;0.35;0.35;;;8.40;99.90;;;;;;4390780;32;20509;-61
2024/01/04 03:42:22;;;;;;;0.40;0.40;;;8.40;99.90;;;;;;4390313;32;20062;-61
2024/01/04 03:44:47;;;;;;;0.30;0.30;;;8.50;99.90;;;;;;4389977;32;20103;-59
2024/01/04 03:47:13;;;;;;;22.37;0.57;;;8.50;99.90;;;;;;4394338;32;20143;-60
2024/01/04 03:49:38;;;;;;;0.40;0.40;;;8.50;99.90;;;;;;4393080;32;20794;-60
2024/01/04 03:52:04;;;;;;;0.32;0.32;;;8.50;99.90;;;;;;4392237;32;20147;-60
2024/01/04 03:54:29;;;;;;;0.52;0.52;;;8.40;99.90;;;;;;4391103;32;20090;-61
2024/01/04 03:56:56;;;;;;;0.30;0.30;;;8.40;99.90;;;;;;4393982;32;20085;-59
2024/01/04 03:59:22;;;;;;;0.40;0.40;;;8.40;99.90;;;;;;4391995;32;20590;-61
2024/01/04 04:01:48;;;;;;;0.30;0.30;;;8.40;99.90;;;;;;4377342;32;20066;-61
2024/01/04 04:04:14;;;;;;;0.32;0.32;;;8.40;99.90;;;;;;4394190;32;20078;-60
2024/01/04 04:06:39;;;;;;;0.20;0.20;;;8.40;99.90;;;;;;4394317;32;20077;-60
2024/01/04 04:09:07;;;;;;;0.30;0.30;;;8.30;99.90;;;;;;4394013;32;20369;-62
2024/01/04 04:11:33;;;;;;;0.30;0.30;;;8.30;99.90;;;;;;4392059;32;20155;-61
2024/01/04 04:13:58;;;;;;;0.57;0.57;;;8.30;99.90;;;;;;4393274;32;20061;-59
2024/01/04 04:16:24;;;;;;;0.40;0.40;;;8.30;99.90;;;;;;4395158;32;20078;-59
2024/01/04 04:18:49;;;;;;;0.20;0.20;;;8.30;99.90;;;;;;4396633;32;20079;-61
2024/01/04 04:21:24;;;;;;;0.30;0.30;;;8.30;99.90;;;;;;4394938;32;20426;-61
2024/01/04 04:23:50;;;;;;;0.35;0.35;;;8.30;99.90;;;;;;4397123;32;20074;-61
2024/01/04 04:26:17;;;;;;;0.30;0.30;;;8.30;99.90;;;;;;4378571;32;20074;-61
2024/01/04 04:28:43;;;;;;;0.20;0.20;;;8.30;99.90;;;;;;4394537;32;20125;-61
2024/01/04 04:31:15;;;;;;;0.20;0.20;;;8.30;99.90;;;;;;4378601;32;20082;-62
2024/01/04 04:33:43;;;;;;;0.30;0.30;;;8.30;99.90;;;;;;4376996;32;20094;-61
2024/01/04 04:36:08;;;;;;;0.30;0.30;;;8.20;99.90;;;;;;4397852;32;20065;-60
2024/01/04 04:38:34;;;;;;;0.30;0.30;;;8.20;99.90;;;;;;4394715;32;20066;-61
2024/01/04 04:41:00;;;;;;;0.73;0.73;;;8.20;99.90;;;;;;4398691;32;20399;-60
2024/01/04 04:43:26;;;;;;;0.40;0.40;;;8.20;99.90;;;;;;4376530;32;20082;-61
2024/01/04 04:45:51;;;;;;;0.30;0.30;;;8.20;99.90;;;;;;4395591;32;20089;-60
2024/01/04 04:48:16;;;;;;;0.30;0.30;;;8.20;99.90;;;;;;4394308;32;20518;-61
2024/01/04 04:50:42;;;;;;;0.30;0.30;;;8.20;99.90;;;;;;4396710;32;20082;-60
2024/01/04 04:53:07;;;;;;;0.30;0.30;;;8.20;99.90;;;;;;4394648;32;20200;-60
2024/01/04 04:55:33;;;;;;;0.30;0.30;;;8.10;99.90;;;;;;4396842;32;20078;-60
2024/01/04 04:57:58;;;;;;;0.30;0.30;;;8.20;99.90;;;;;;4397053;32;20091;-60
2024/01/04 05:00:24;;;;;;;0.20;0.20;;;8.20;99.90;;;;;;4392203;32;20083;-61
2024/01/04 05:02:49;;;;;;;2.00;0.50;;;8.20;99.90;;;;;;4394520;32;20188;-60
2024/01/04 05:05:15;;;;;;;0.30;0.30;;;8.20;99.90;;;;;;4394963;32;20513;-60
2024/01/04 05:07:40;;;;;;;0.40;0.40;;;8.20;99.90;;;;;;4394722;32;20223;-60
2024/01/04 05:10:06;;;;;;;0.30;0.30;;;8.20;99.90;;;;;;4394249;32;20085;-60
2024/01/04 05:12:33;;;;;;;0.22;0.22;;;8.20;99.90;;;;;;4394605;32;20082;-61
2024/01/04 05:14:59;;;;;;;0.30;0.30;;;8.20;99.90;;;;;;4394010;32;20439;-61
2024/01/04 05:17:24;;;;;;;0.20;0.20;;;8.20;99.90;;;;;;4380273;32;20058;-61
2024/01/04 05:19:50;;;;;;;0.80;0.40;;;8.20;99.90;;;;;;4394436;32;20079;-60
2024/01/04 05:22:16;;;;;;;0.40;0.40;;;8.20;99.90;;;;;;4393494;32;20135;-60
2024/01/04 05:24:41;;;;;;;0.22;0.22;;;8.20;99.90;;;;;;4395347;32;20134;-60
2024/01/04 05:27:07;;;;;;;26.77;0.52;;;8.20;99.90;;;;;;4365084;32;20086;-60
2024/01/04 05:29:32;;;;;;;0.30;0.30;;;8.20;99.90;;;;;;4397113;32;20082;-62
2024/01/04 05:31:58;;;;;;;0.30;0.30;;;8.20;99.90;;;;;;4395667;32;20201;-61
2024/01/04 05:34:23;;;;;;;0.30;0.30;;;8.20;99.90;;;;;;4395386;32;20465;-61
2024/01/04 05:36:50;;;;;;;0.20;0.20;;;8.20;99.90;;;;;;4378342;32;20090;-60
2024/01/04 05:39:15;;;;;;;0.30;0.30;;;8.20;99.90;;;;;;4394082;32;20073;-61
2024/01/04 05:41:40;;;;;;;0.30;0.30;;;8.20;99.90;;;;;;4393595;32;20189;-62
2024/01/04 05:44:06;;;;;;;0.22;0.22;;;8.20;99.90;;;;;;4391914;32;20078;-61
2024/01/04 05:46:33;;;;;;;0.40;0.40;;;8.20;99.90;;;;;;4395683;32;20490;-60
2024/01/04 05:48:59;;;;;;;0.30;0.30;;;8.10;99.90;;;;;;4396650;32;20062;-62
2024/01/04 05:51:25;;;;;;;0.30;0.30;;;8.20;99.90;;;;;;4394805;32;20094;-60
2024/01/04 05:53:50;;;;;;;0.40;0.40;;;8.10;99.90;;;;;;4395475;32;20124;-60
2024/01/04 05:56:15;;;;;;;0.40;0.40;;;8.10;99.90;;;;;;4393354;32;20071;-60
2024/01/04 05:58:41;;;;;;;0.20;0.20;;;8.00;99.90;;;;;;4395773;32;20062;-60
2024/01/04 06:01:08;;;;;;;0.35;0.35;;;8.00;99.90;;;;;;4392661;32;20066;-60
2024/01/04 06:03:33;;;;;;;0.30;0.30;;;8.00;99.90;;;;;;4395467;32;20128;-61
2024/01/04 06:05:59;;;;;;;0.37;0.37;;;7.90;99.90;;;;;;4395037;32;20082;-60
2024/01/04 06:08:24;;;;;;;0.37;0.37;;;7.90;99.90;;;;;;4379378;32;20078;-60
2024/01/04 06:10:50;;;;;;;0.30;0.30;;;8.00;99.90;;;;;;4394470;32;20078;-60
2024/01/04 06:13:18;;;;;;;0.22;0.22;;;8.00;99.90;;;;;;4378420;32;20095;-60
2024/01/04 06:15:45;;;;;;;0.32;0.32;;;7.90;99.90;;;;;;4396813;32;20094;-61
2024/01/04 06:18:11;;;;;;;0.52;0.50;;;7.90;99.90;;;;;;4395106;32;20074;-60
2024/01/04 06:20:38;;;;;;;0.30;0.30;;;7.90;99.90;;;;;;4396961;32;20066;-60
2024/01/04 06:23:03;;;;;;;0.20;0.20;;;7.90;99.90;;;;;;4397502;32;20133;-60
2024/01/04 06:25:29;;;;;;;0.20;0.20;;;7.90;99.90;;;;;;4396357;32;20075;-60
2024/01/04 06:27:55;;;;;;;0.30;0.30;;;7.90;99.90;;;;;;4396152;32;20138;-60
2024/01/04 06:30:21;;;;;;;0.50;0.50;;;7.90;99.90;;;;;;4395183;32;20090;-61
2024/01/04 06:32:47;;;;;;;0.30;0.30;;;7.90;99.90;;;;;;4394841;32;20086;-60
2024/01/04 06:35:12;;;;;;;0.30;0.30;;;7.90;99.90;;;;;;4395467;32;20066;-61
2024/01/04 06:37:37;;;;;;;0.30;0.30;;;7.90;99.90;;;;;;4394659;32;20443;-61
2024/01/04 06:40:05;;;;;;;0.28;0.28;;;7.90;99.90;;;;;;4394568;32;20077;-61
2024/01/04 06:42:31;;;;;;;0.28;0.28;;;7.90;99.90;;;;;;4394367;32;20085;-60
2024/01/04 06:44:56;;;;;;;1.37;0.75;;;7.90;99.90;;;;;;4397157;32;20478;-61
2024/01/04 06:47:22;;;;;;;0.30;0.30;;;7.90;99.90;;;;;;4396003;32;20558;-61
2024/01/04 06:49:47;;;;;;;0.30;0.30;;;7.90;99.90;;;;;;4396178;32;20093;-61
2024/01/04 06:52:13;;;;;;;0.20;0.20;;;7.90;99.90;;;;;;4393465;32;20077;-60
2024/01/04 06:54:38;;;;;;;0.30;0.30;;;7.90;99.90;;;;;;4399091;32;20122;-62
2024/01/04 06:57:06;;;;;;;0.85;0.85;;;7.80;99.90;;;;;;4400814;32;20103;-60
2024/01/04 06:59:32;;;;;;;0.30;0.30;;;7.70;99.90;;;;;;4398898;32;20081;-60
2024/01/04 07:01:59;;;;;;;0.30;0.30;;;7.60;99.90;;;;;;4397300;32;20070;-60
2024/01/04 07:04:24;;;;;;;0.35;0.35;;;7.50;99.90;;;;;;4397590;32;20086;-60
2024/01/04 07:06:50;;;;;;;0.30;0.30;;;7.50;99.90;;;;;;4398011;32;20534;-61
2024/01/04 07:09:16;;;;;;;0.30;0.30;;;7.40;99.90;;;;;;4397525;32;20062;-61
2024/01/04 07:11:41;;;;;;;0.20;0.20;;;7.30;99.90;;;;;;4395457;32;20074;-61
2024/01/04 07:14:09;;;;;;;0.30;0.30;;;7.30;99.90;;;;;;4398457;32;20082;-61
2024/01/04 07:16:40;;;;;;;0.30;0.30;;;7.30;99.90;;;;;;4396416;32;20086;-61
2024/01/04 07:19:07;;;;;;;0.30;0.30;;;7.30;99.90;;;;;;4397076;32;20648;-62
2024/01/04 07:21:33;;;;;;;0.20;0.20;;;7.20;99.90;;;;;;4395872;32;20419;-60
2024/01/04 07:23:58;;;;;;;2.12;1.23;;;7.20;99.90;;;;;;4399002;32;20121;-61
2024/01/04 07:26:24;;;;;;;0.20;0.20;;;7.10;99.90;;;;;;4398362;32;20692;-62
2024/01/04 07:28:50;;;;;;;0.32;0.32;;;6.90;99.90;;;;;;4394071;32;20078;-62
2024/01/04 07:31:15;;;;;;;0.30;0.30;;;6.70;99.90;;;;;;4394625;32;20512;-61
2024/01/04 07:33:41;;;;;;;0.30;0.30;;;6.70;99.90;;;;;;4397756;32;20059;-61
2024/01/04 07:36:06;;;;;;;0.30;0.30;;;6.60;99.90;;;;;;4377930;32;20082;-62
2024/01/04 07:38:34;;;;;;;0.50;0.50;;;6.50;99.90;;;;;;4394047;32;20159;-62
2024/01/04 07:41:00;;;;;;;0.30;0.30;;;6.40;99.90;;;;;;4395472;32;20548;-61
2024/01/04 07:43:25;;;;;;;0.30;0.30;;;6.30;99.90;;;;;;4395049;32;20125;-61
2024/01/04 07:45:50;;;;;;;0.20;0.20;;;6.30;99.90;;;;;;4392602;32;20129;-61
2024/01/04 07:48:16;;;;;;;0.30;0.30;;;6.30;99.90;;;;;;4393063;32;20066;-61
2024/01/04 07:50:41;;;;;;;0.30;0.30;;;6.20;99.90;;;;;;4388174;32;20081;-60
2024/01/04 07:53:07;;;;;;;0.40;0.40;;;6.20;99.90;;;;;;4394036;32;20078;-60
2024/01/04 07:55:32;;;;;;;0.30;0.30;;;6.20;99.90;;;;;;4396100;32;20537;-61
2024/01/04 07:57:58;;;;;;;0.20;0.20;;;6.10;99.90;;;;;;4398194;32;20470;-62
2024/01/04 08:00:23;;;;;;;0.30;0.30;;;6.10;99.90;;;;;;4377885;32;20093;-61
2024/01/04 08:02:49;;;;;;;0.40;0.40;;;6.10;99.90;;;;;;4395235;32;21197;-61
2024/01/04 08:05:14;;;;;;;2.67;1.02;;;6.20;99.90;;;;;;4397006;32;20490;-61
2024/01/04 08:07:43;;;;;;;0.30;0.30;;;6.20;99.90;;;;;;4395427;32;20073;-62
2024/01/04 08:10:09;;;;;;;0.30;0.30;;;6.10;99.90;;;;;;4393362;32;20081;-61
2024/01/04 08:12:34;;;;;;;0.20;0.20;;;6.20;99.90;;;;;;4396020;32;20094;-61
2024/01/04 08:15:00;;;;;;;0.25;0.25;;;6.20;99.90;;;;;;4396759;32;20137;-63
2024/01/04 08:17:25;;;;;;;0.30;0.30;;;6.10;99.90;;;;;;4378750;32;20132;-60
2024/01/04 08:19:51;;;;;;;0.40;0.40;;;6.10;99.90;;;;;;4394825;32;20077;-60
2024/01/04 08:22:16;;;;;;;0.30;0.30;;;6.10;99.90;;;;;;4378655;32;20074;-61
2024/01/04 08:24:42;;;;;;;0.30;0.30;;;6.20;99.90;;;;;;4402186;32;20082;-61
2024/01/04 08:27:08;;;;;;;0.30;0.30;;;6.10;99.90;;;;;;4381836;32;20537;-60
2024/01/04 08:29:33;;;;;;;0.30;0.30;;;6.10;99.90;;;;;;4395192;32;20057;-61
2024/01/04 08:31:59;;;;;;;0.30;0.30;;;6.10;99.90;;;;;;4393256;32;20132;-61
2024/01/04 08:34:24;;;;;;;1.12;0.85;;;6.00;99.90;;;;;;4396824;32;20078;-61
2024/01/04 08:36:50;;;;;;;0.30;0.30;;;5.90;99.90;;;;;;4394388;32;20166;-60
2024/01/04 08:39:15;;;;;;;0.32;0.32;;;5.90;99.90;;;;;;4394480;32;20073;-60
2024/01/04 08:41:40;;;;;;;0.50;0.50;;;5.80;99.90;;;;;;4393014;32;20137;-62
2024/01/04 08:44:06;;;;;;;0.20;0.20;;;5.80;99.90;;;;;;4393731;32;20070;-61
2024/01/04 08:46:37;;;;;;;0.28;0.28;;;5.80;99.90;;;;;;4395548;32;20081;-62
2024/01/04 08:49:04;;;;;;;0.30;0.30;;;5.70;99.90;;;;;;4393981;32;20141;-60
2024/01/04 08:51:29;;;;;;;0.30;0.30;;;5.70;99.90;;;;;;4394762;32;20074;-61
2024/01/04 08:53:55;;;;;;;0.30;0.30;;;5.70;99.90;;;;;;4394799;32;20074;-60
2024/01/04 08:56:20;;;;;;;0.43;0.43;;;5.60;99.90;;;;;;4394366;32;20078;-60
2024/01/04 08:58:46;;;;;;;0.30;0.30;;;5.60;99.90;;;;;;4394453;32;20129;-62
2024/01/04 09:01:12;;;;;;;0.30;0.30;;;5.60;99.90;;;;;;4394848;32;20177;-63
2024/01/04 09:03:37;;;;;;;3.75;0.75;;;5.70;99.90;;;;;;4395928;32;20061;-60
2024/01/04 09:06:06;;;;;;;0.50;0.50;;;5.70;99.90;;;;;;4395464;32;20504;-60
2024/01/04 09:08:33;;;;;;;0.57;0.57;;;5.60;99.90;;;;;;4394049;32;20127;-62
2024/01/04 09:10:59;;;;;;;0.62;0.62;;;5.50;99.90;;;;;;4393606;32;20078;-60
2024/01/04 09:13:24;;;;;;;0.30;0.30;;;5.50;99.90;;;;;;4392821;32;20086;-60
2024/01/04 09:15:49;;;;;;;0.30;0.30;;;5.60;99.90;;;;;;4395312;32;20120;-61
2024/01/04 09:18:15;;;;;;;0.32;0.32;;;5.50;99.90;;;;;;4393054;32;20070;-61
2024/01/04 09:20:40;;;;;;;0.30;0.30;;;5.30;99.90;;;;;;4394375;32;20173;-61
2024/01/04 09:23:06;;;;;;;0.30;0.30;;;5.30;99.90;;;;;;4394215;32;20542;-61
2024/01/04 09:25:31;;;;;;;0.30;0.30;;;5.30;99.90;;;;;;4393886;32;20397;-61
2024/01/04 09:27:57;;;;;;;4.07;1.23;;;5.20;99.90;;;;;;4393038;32;20103;-62
2024/01/04 09:30:22;;;;;;;3.20;1.15;;;5.30;99.90;;;;;;4394607;32;20748;-61
2024/01/04 09:32:48;;;;;;;0.30;0.30;;;5.10;99.90;;;;;;4378608;32;20069;-62
2024/01/04 09:35:20;;;;;;;0.30;0.30;;;5.00;99.90;;;;;;4394204;32;20517;-62
2024/01/04 09:37:46;;;;;;;0.30;0.30;;;5.00;99.90;;;;;;4392010;32;20089;-62
2024/01/04 09:40:12;;;;;;;0.35;0.35;;;5.10;99.90;;;;;;4392571;32;20070;-62
2024/01/04 09:42:40;;;;;;;0.30;0.30;;;5.00;99.90;;;;;;4375689;32;20116;-62
2024/01/04 09:45:11;;;;;;;0.40;0.40;;;5.10;99.90;;;;;;4394701;32;20090;-62
2024/01/04 09:47:41;;;;;;;0.30;0.30;;;5.10;99.90;;;;;;4394699;32;20148;-62
2024/01/04 09:50:10;;;;;;;0.40;0.40;;;5.10;99.90;;;;;;4377182;32;20537;-61
2024/01/04 09:52:37;;;;;;;0.30;0.30;;;5.00;99.90;;;;;;4391171;32;20168;-62
2024/01/04 09:55:05;;;;;;;0.30;0.30;;;5.00;99.90;;;;;;4392808;32;20078;-61
2024/01/04 09:57:30;;;;;;;0.30;0.30;;;5.00;99.90;;;;;;4394102;32;21563;-61
2024/01/04 09:59:55;;;;;;;0.70;0.68;;;5.10;99.90;;;;;;4392663;32;20085;-61
2024/01/04 10:02:21;;;;;;;0.30;0.30;;;5.20;99.90;;;;;;4392878;32;20522;-59
2024/01/04 10:04:49;;;;;;;0.30;0.30;;;5.20;99.90;;;;;;4396328;32;20074;-60
2024/01/04 10:07:22;;;;;;;0.37;0.37;;;5.20;99.90;;;;;;4380292;32;20079;-61
2024/01/04 10:10:00;;;;;;;0.30;0.30;;;5.10;99.90;;;;;;4393728;32;20069;-61
2024/01/04 10:12:28;;;;;;;0.40;0.40;;;5.10;99.90;;;;;;4379898;32;20081;-61
2024/01/04 10:14:54;;;;;;;0.20;0.20;;;5.00;99.90;;;;;;4397338;32;20078;-62
2024/01/04 10:17:20;;;;;;;0.35;0.35;;;5.10;99.90;;;;;;4395143;32;20074;-62
2024/01/04 10:19:45;;;;;;;0.30;0.30;;;5.00;99.90;;;;;;4395556;32;20547;-62
2024/01/04 10:22:12;;;;;;;0.30;0.30;;;5.00;99.90;;;;;;4395022;32;20094;-60
2024/01/04 10:24:38;;;;;;;0.30;0.30;;;5.00;99.90;;;;;;4395640;32;20066;-61
2024/01/04 10:27:05;;;;;;;0.30;0.30;;;4.90;99.90;;;;;;4377872;32;20129;-62
2024/01/04 10:29:35;;;;;;;0.40;0.40;;;4.90;99.90;;;;;;4391332;32;20085;-60
2024/01/04 10:32:02;;;;;;;0.30;0.30;;;4.80;99.90;;;;;;4379417;32;20140;-62
2024/01/04 10:34:28;;;;;;;0.30;0.30;;;4.90;99.90;;;;;;4377977;32;20596;-61
2024/01/04 10:36:55;;;;;;;0.30;0.30;;;4.80;99.90;;;;;;4393782;32;20589;-60
2024/01/04 10:39:21;;;;;;;0.30;0.30;;;4.90;99.90;;;;;;4378917;32;20081;-60
2024/01/04 10:42:02;;;;;;;0.40;0.40;;;4.90;99.90;;;;;;4392840;32;20074;-60
2024/01/04 10:44:28;;;;;;;0.30;0.30;;;4.90;99.90;;;;;;4395102;32;20395;-62
2024/01/04 10:46:55;;;;;;;0.40;0.40;;;4.90;99.90;;;;;;4380055;32;20079;-61
2024/01/04 10:49:22;;;;;;;0.30;0.30;;;4.90;99.90;;;;;;4375915;32;21112;-61
2024/01/04 10:51:51;;;;;;;7.22;1.37;;;5.00;99.90;;;;;;4378497;32;20081;-63
2024/01/04 10:54:18;;;;;;;0.30;0.30;;;4.90;99.90;;;;;;4393296;32;20070;-61
2024/01/04 10:56:44;;;;;;;0.30;0.30;;;5.00;99.90;;;;;;4393533;32;20325;-61
2024/01/04 10:59:12;;;;;;;0.30;0.30;;;5.00;99.90;;;;;;4392311;32;20061;-62
2024/01/04 11:04:06;;;;;;;0.30;0.30;;;4.80;99.90;;;;;;4395749;32;20078;-61
2024/01/04 11:06:39;;;;;;;0.40;0.40;;;4.80;99.90;;;;;;4379065;32;20621;-61
2024/01/04 11:09:07;;;;;;;0.30;0.30;;;4.80;99.90;;;;;;4393748;32;20486;-61
2024/01/04 11:11:34;;;;;;;0.30;0.30;;;4.80;99.90;;;;;;4362626;32;20529;-61
2024/01/04 11:14:00;;;;;;;0.40;0.40;;;4.80;99.90;;;;;;4394829;32;20129;-61
2024/01/04 11:16:49;;;;;;;0.30;0.30;;;4.70;99.90;;;;;;4394166;32;20078;-60
2024/01/04 11:19:32;;;;;;;0.30;0.30;;;4.70;99.90;;;;;;4376760;32;20149;-62
2024/01/04 11:22:23;;;;;;;0.30;0.30;;;4.60;99.90;;;;;;4378013;32;20513;-61
2024/01/04 11:24:50;;;;;;;;;;;4.60;99.90;;;;;;4383359;32;20082;-60
2024/01/04 11:27:17;;;;;;;0.30;0.30;;;4.70;99.90;;;;;;4401315;32;19969;-61
2024/01/04 11:29:43;;;;;;;0.30;0.30;;;4.70;99.90;;;;;;4401075;32;20066;-61
2024/01/04 11:32:10;;;;;;;0.30;0.30;;;4.60;99.90;;;;;;4399676;32;20066;-61
2024/01/04 11:34:38;;;;;;;0.30;0.30;;;4.50;99.90;;;;;;4400470;32;20066;-61
2024/01/04 11:37:16;;;;;;;0.20;0.20;;;4.50;99.90;;;;;;4383526;32;20401;-61
2024/01/04 11:40:05;;;;;;;0.30;0.30;;;4.50;99.90;;;;;;4401364;32;20096;-62
2024/01/04 11:42:37;;;;;;;0.40;0.40;;;4.50;99.90;;;;;;4386437;32;20058;-61
2024/01/04 11:45:04;;;;;;;0.30;0.30;;;4.50;99.90;;;;;;4400535;32;20077;-61
2024/01/04 11:47:46;;;;;;;0.40;0.40;;;4.50;99.90;;;;;;4401051;32;20394;-61
2024/01/04 11:50:29;;;;;;;0.30;0.30;;;4.60;99.90;;;;;;4370875;32;86811;-62
2024/01/04 11:53:12;;;;;;;0.40;0.40;;;4.60;99.90;;;;;;4397785;32;20109;-61
2024/01/04 11:55:38;;;;;;;0.30;0.30;;;4.40;99.90;;;;;;4383954;32;20561;-61
2024/01/04 11:58:10;;;;;;;0.30;0.30;;;4.50;99.90;;;;;;4397394;32;20141;-62
2024/01/04 12:00:37;;;;;;;0.30;0.30;;;4.50;99.90;;;;;;4393821;32;20110;-61
2024/01/04 12:03:12;;;;;;;0.40;0.40;;;4.50;99.90;;;;;;4371048;32;20549;-62
2024/01/04 12:05:43;;;;;;;0.30;0.30;;;4.50;99.90;;;;;;4384046;32;20536;-61
2024/01/04 12:08:09;;;;;;;0.40;0.40;;;4.50;99.90;;;;;;4397428;32;20082;-61
2024/01/04 12:10:34;;;;;;;0.30;0.30;;;4.40;99.90;;;;;;4377937;32;20572;-61
2024/01/04 12:12:59;;;;;;;0.57;0.57;;;4.50;99.90;;;;;;4393899;32;20518;-62
2024/01/04 12:15:25;;;;;;;0.40;0.40;;;4.40;99.90;;;;;;4399393;32;20173;-61
2024/01/04 12:17:50;;;;;;;0.40;0.40;;;4.30;99.90;;;;;;4399071;32;20081;-62
2024/01/04 12:20:17;;;;;;;0.30;0.30;;;4.30;99.90;;;;;;4394463;32;20082;-61
2024/01/04 12:22:43;;;;;;;0.30;0.30;;;4.40;99.90;;;;;;4381072;32;20082;-61
2024/01/04 12:25:09;;;;;;;4.00;0.62;;;4.30;99.90;;;;;;4395749;32;20163;-63
2024/01/04 12:27:36;;;;;;;0.30;0.30;;;4.20;99.90;;;;;;4382195;32;20534;-62
2024/01/04 12:30:05;;;;;;;0.30;0.30;;;4.20;99.90;;;;;;4394294;32;20103;-62
2024/01/04 12:32:31;;;;;;;0.30;0.30;;;4.20;99.90;;;;;;4395048;32;20486;-61
2024/01/04 12:34:57;;;;;;;0.35;0.35;;;4.20;99.90;;;;;;4393697;32;20067;-62
2024/01/04 12:37:22;;;;;;;0.30;0.30;;;4.30;99.90;;;;;;4393097;32;20129;-61
2024/01/04 12:39:48;;;;;;;0.40;0.40;;;4.20;99.90;;;;;;4394959;32;20095;-61
2024/01/04 12:42:14;;;;;;;0.30;0.30;;;4.10;99.90;;;;;;4395320;32;20181;-61
2024/01/04 12:44:39;;;;;;;0.40;0.40;;;4.20;99.90;;;;;;4399142;32;20105;-62
2024/01/04 12:47:05;;;;;;;0.30;0.30;;;4.10;99.90;;;;;;4395205;32;20164;-62
2024/01/04 12:49:31;;;;;;;0.40;0.40;;;4.00;99.90;;;;;;4378939;32;20620;-61
2024/01/04 12:51:56;;;;;;;0.30;0.30;;;4.00;99.90;;;;;;4394653;32;20071;-61
2024/01/04 12:54:22;;;;;;;0.30;0.30;;;4.10;99.90;;;;;;4395141;32;20078;-61
2024/01/04 12:56:50;;;;;;;0.32;0.32;;;4.10;99.90;;;;;;4378043;32;20173;-61